Time;durP1;ratioP1;P1;durP2;ratioP2;P2;SDS_P1;SDS_P2;PMS_P1;PMS_P2;Temp;Humidity;BMP_temperature;BMP_pressure;BME280_temperature;BME280_humidity;BME280_pressure;Samples;Min_cycle;Max_cycle;Signal;HPM_P1;HPM_P2
2023/03/20 00:00:30;;;;;;;19.85;14.40;;;;;;;7.84;100.00;101917.91;5048924;28;20024;-84
2023/03/20 00:02:56;;;;;;;21.30;15.40;;;;;;;7.77;100.00;101911.25;5068080;28;20033;-83
2023/03/20 00:05:23;;;;;;;22.30;14.77;;;;;;;7.78;100.00;101920.81;5069166;28;20024;-84
2023/03/20 00:07:49;;;;;;;30.00;15.57;;;;;;;7.77;100.00;101926.97;5060892;28;20169;-84
2023/03/20 00:10:17;;;;;;;21.00;14.18;;;;;;;7.78;100.00;101911.19;5038226;28;20039;-84
2023/03/20 00:12:45;;;;;;;20.67;15.23;;;;;;;7.77;100.00;101912.09;5068444;28;20025;-85
2023/03/20 00:15:25;;;;;;;21.30;14.38;;;;;;;7.79;100.00;101919.91;5067418;28;20115;-85
2023/03/20 00:17:50;;;;;;;22.48;13.90;;;;;;;7.75;100.00;101923.56;5034111;28;20062;-85
2023/03/20 00:20:16;;;;;;;19.80;14.60;;;;;;;7.74;100.00;101922.72;5068023;28;20430;-84
2023/03/20 00:22:41;;;;;;;18.80;13.73;;;;;;;7.75;100.00;101915.72;5068610;28;20036;-84
2023/03/20 00:25:13;;;;;;;17.77;13.65;;;;;;;7.69;100.00;101916.00;5056450;28;20516;-85
2023/03/20 00:27:39;;;;;;;23.73;14.45;;;;;;;7.65;100.00;101906.59;5049126;28;20040;-85
2023/03/20 00:30:18;;;;;;;19.85;13.85;;;;;;;7.58;100.00;101897.28;5050474;28;20028;-85
2023/03/20 00:32:43;;;;;;;21.35;14.43;;;;;;;7.45;100.00;101889.97;5069073;28;20481;-85
2023/03/20 00:35:24;;;;;;;20.77;13.65;;;;;;;7.38;100.00;101892.94;5048906;28;20021;-84
2023/03/20 00:37:51;;;;;;;20.00;13.27;;;;;;;7.29;100.00;101883.72;5052610;28;20033;-85
2023/03/20 00:40:17;;;;;;;18.65;13.05;;;;;;;7.24;100.00;101875.22;5066886;28;20400;-85
2023/03/20 00:42:48;;;;;;;16.90;12.85;;;;;;;7.16;100.00;101878.13;5051423;28;20032;-79
2023/03/20 00:45:17;;;;;;;21.60;13.80;;;;;;;7.08;100.00;101882.84;5053743;28;20055;-85
2023/03/20 00:47:44;;;;;;;19.45;13.25;;;;;;;7.04;100.00;101877.81;5068443;28;20070;-85
2023/03/20 00:50:22;;;;;;;19.17;13.30;;;;;;;6.99;100.00;101866.72;5066957;28;20025;-85
2023/03/20 00:52:49;;;;;;;18.88;12.73;;;;;;;6.95;100.00;101875.59;5050741;28;20112;-85
2023/03/20 00:55:17;;;;;;;21.00;13.13;;;;;;;6.90;100.00;101879.28;5067673;28;20564;-85
2023/03/20 00:57:47;;;;;;;18.73;13.35;;;;;;;6.89;100.00;101885.41;5071208;28;20028;-84
2023/03/20 01:00:22;;;;;;;18.08;12.93;;;;;;;6.80;100.00;101895.38;5061868;28;20052;-85
2023/03/20 01:02:48;;;;;;;19.48;12.90;;;;;;;6.79;100.00;101904.16;5051211;28;20029;-85
2023/03/20 01:05:13;;;;;;;21.00;13.60;;;;;;;6.66;100.00;101914.28;5051137;28;20032;-85
2023/03/20 01:07:39;;;;;;;22.42;13.55;;;;;;;6.72;100.00;101919.25;5066669;28;20032;-85
2023/03/20 01:10:05;;;;;;;17.60;13.57;;;;;;;6.66;100.00;101924.72;5069711;28;20020;-84
2023/03/20 01:12:31;;;;;;;20.23;13.70;;;;;;;6.64;100.00;101934.41;5070412;28;20029;-84
2023/03/20 01:14:57;;;;;;;18.85;14.07;;;;;;;6.61;100.00;101929.28;5069304;28;20435;-84
2023/03/20 01:17:24;;;;;;;22.38;14.02;;;;;;;6.55;100.00;101916.47;5046472;28;20035;-85
2023/03/20 01:19:50;;;;;;;19.05;14.23;;;;;;;6.49;100.00;101907.13;5047523;28;20501;-84
2023/03/20 01:22:19;;;;;;;18.60;14.35;;;;;;;6.46;100.00;101896.78;5071654;28;20033;-85
2023/03/20 01:24:46;;;;;;;21.98;13.98;;;;;;;6.37;100.00;101896.28;5053758;28;20495;-84
2023/03/20 01:27:16;;;;;;;25.33;14.68;;;;;;;6.33;100.00;101899.91;5071203;28;20543;-84
2023/03/20 01:29:43;;;;;;;22.58;15.30;;;;;;;6.36;100.00;101905.88;5072361;28;20461;-85
2023/03/20 01:32:11;;;;;;;21.88;15.27;;;;;;;6.30;100.00;101927.03;5070161;28;20558;-85
2023/03/20 01:34:38;;;;;;;21.45;15.40;;;;;;;6.24;100.00;101912.44;5060190;28;20025;-85
2023/03/20 01:37:13;;;;;;;25.30;15.38;;;;;;;6.27;100.00;101906.25;5051808;28;20021;-85
2023/03/20 01:39:38;;;;;;;29.95;16.98;;;;;;;6.23;100.00;101899.44;5050417;28;20032;-85
2023/03/20 01:42:06;;;;;;;23.83;16.98;;;;;;;6.17;100.00;101897.91;5070053;28;20020;-85
2023/03/20 01:44:34;;;;;;;23.75;16.60;;;;;;;6.15;100.00;101912.81;5052453;28;20035;-84
2023/03/20 01:47:02;;;;;;;26.45;17.50;;;;;;;6.12;100.00;101902.47;5070462;28;20032;-84
2023/03/20 01:50:05;;;;;;;25.23;17.05;;;;;;;6.08;100.00;101903.50;5070120;28;20111;-85
2023/03/20 01:52:31;;;;;;;31.75;17.70;;;;;;;6.02;100.00;101900.28;5066008;28;20082;-85
2023/03/20 01:54:57;;;;;;;22.63;16.48;;;;;;;6.07;100.00;101893.13;5070289;28;20016;-84
2023/03/20 01:57:24;;;;;;;26.10;17.83;;;;;;;6.01;100.00;101899.44;5070469;28;20389;-84
2023/03/20 02:00:22;;;;;;;24.75;18.35;;;;;;;6.02;100.00;101895.91;5070332;28;20024;-84
2023/03/20 02:02:48;;;;;;;23.52;17.20;;;;;;;6.00;100.00;101902.91;5019594;28;20044;-85
2023/03/20 02:05:18;;;;;;;25.45;18.77;;;;;;;5.94;100.00;101903.16;5069799;28;20019;-85
2023/03/20 02:07:48;;;;;;;24.73;18.08;;;;;;;5.98;100.00;101896.91;5066138;28;20439;-85
2023/03/20 02:10:15;;;;;;;23.85;17.75;;;;;;;6.00;100.00;101900.31;5064863;28;20158;-85
2023/03/20 02:12:43;;;;;;;24.77;18.83;;;;;;;5.94;100.00;101917.06;5070100;28;20040;-85
2023/03/20 02:15:10;;;;;;;27.40;19.48;;;;;;;5.93;100.00;101917.13;5069368;28;20060;-85
2023/03/20 02:17:36;;;;;;;28.60;19.48;;;;;;;5.88;100.00;101913.81;5069996;28;20039;-84
2023/03/20 02:20:21;;;;;;;29.65;20.00;;;;;;;5.85;100.00;101925.22;5069667;28;20032;-84
2023/03/20 02:23:23;;;;;;;29.10;19.83;;;;;;;5.81;100.00;101914.94;5070984;28;20016;-85
2023/03/20 02:26:16;;;;;;;27.60;19.63;;;;;;;5.74;100.00;101929.16;5061476;28;20104;-85
2023/03/20 02:29:12;;;;;;;29.92;20.00;;;;;;;5.75;100.00;101928.22;5050586;28;20901;-84
2023/03/20 02:31:55;;;;;;;32.83;21.02;;;;;;;5.71;100.00;101931.88;5057561;28;20684;-84
2023/03/20 02:34:39;;;;;;;30.90;20.70;;;;;;;5.70;100.00;101932.78;5067926;28;20031;-84
2023/03/20 02:37:38;;;;;;;28.52;20.67;;;;;;;5.67;100.00;101907.63;5063483;28;20378;-84
2023/03/20 02:40:24;;;;;;;31.38;22.00;;;;;;;5.66;100.00;101906.78;5070609;28;20362;-85
2023/03/20 02:43:11;;;;;;;31.13;22.30;;;;;;;5.65;100.00;101901.63;5069889;28;20071;-84
2023/03/20 02:46:05;;;;;;;29.85;22.17;;;;;;;5.63;100.00;101904.28;5053889;28;20389;-84
2023/03/20 02:49:07;;;;;;;31.80;22.17;;;;;;;5.63;100.00;101893.84;5069397;28;20063;-84
2023/03/20 02:51:39;;;;;;;32.20;21.35;;;;;;;5.66;100.00;101898.09;5069470;28;20024;-85
2023/03/20 02:54:20;;;;;;;32.58;22.25;;;;;;;5.62;100.00;101896.50;5070036;28;20025;-84
2023/03/20 02:57:01;;;;;;;35.17;22.23;;;;;;;5.58;100.00;101900.97;5051249;28;20073;-84
2023/03/20 02:59:52;;;;;;;31.02;22.38;;;;;;;5.59;100.00;101897.44;5068688;28;20066;-83
2023/03/20 03:02:34;;;;;;;31.48;22.52;;;;;;;5.52;100.00;101890.75;5048872;28;20040;-84
2023/03/20 03:05:03;;;;;;;34.87;22.97;;;;;;;5.48;100.00;101886.53;5068084;28;20070;-84
2023/03/20 03:07:32;;;;;;;33.58;22.33;;;;;;;5.44;100.00;101884.94;5049327;28;20473;-84
2023/03/20 03:10:10;;;;;;;32.95;22.60;;;;;;;5.51;100.00;101886.44;5067375;28;20070;-84
2023/03/20 03:12:40;;;;;;;33.75;22.92;;;;;;;5.47;100.00;101877.00;5068340;28;20392;-84
2023/03/20 03:15:21;;;;;;;34.40;22.23;;;;;;;5.46;100.00;101875.31;5050810;28;20460;-84
2023/03/20 03:17:48;;;;;;;30.60;22.85;;;;;;;5.44;100.00;101866.69;5067456;28;20106;-84
2023/03/20 03:20:21;;;;;;;33.70;23.10;;;;;;;5.42;100.00;101863.28;5066338;28;20502;-85
2023/03/20 03:22:48;;;;;;;33.15;22.08;;;;;;;5.47;100.00;101861.34;5068139;28;20035;-84
2023/03/20 03:25:14;;;;;;;30.38;22.45;;;;;;;5.49;100.00;101861.28;5066824;28;20027;-84
2023/03/20 03:27:42;;;;;;;31.70;22.20;;;;;;;5.50;100.00;101850.81;5069243;28;20024;-84
2023/03/20 03:30:21;;;;;;;31.67;21.73;;;;;;;5.47;100.00;101850.91;5049692;28;20480;-84
2023/03/20 03:32:49;;;;;;;31.08;20.95;;;;;;;5.45;100.00;101857.94;5049366;28;20038;-86
2023/03/20 03:35:22;;;;;;;31.58;21.50;;;;;;;5.47;100.00;101860.50;5046431;28;20025;-85
2023/03/20 03:37:47;;;;;;;;;;;;;;;5.53;100.00;101861.13;5058380;28;20025;-85
2023/03/20 03:40:17;;;;;;;28.48;20.73;;;;;;;5.42;100.00;101858.06;5067709;28;20006;-85
2023/03/20 03:43:06;;;;;;;30.55;21.17;;;;;;;5.45;100.00;101852.72;5067369;28;20048;-85
2023/03/20 03:45:37;;;;;;;34.25;21.92;;;;;;;5.42;100.00;101846.78;5066820;28;20059;-85
2023/03/20 03:48:13;;;;;;;29.83;21.67;;;;;;;5.43;100.00;101848.47;5067617;28;20048;-85
2023/03/20 03:50:47;;;;;;;31.42;21.42;;;;;;;5.39;100.00;101849.50;5050656;28;20055;-85
2023/03/20 03:53:16;;;;;;;32.13;22.33;;;;;;;5.38;100.00;101846.03;5067520;28;20119;-85
2023/03/20 03:55:47;;;;;;;29.95;20.88;;;;;;;5.37;100.00;101844.34;5063764;28;20044;-85
2023/03/20 03:58:20;;;;;;;31.15;20.42;;;;;;;5.35;100.00;101840.94;5068632;28;20067;-85
2023/03/20 04:00:50;;;;;;;30.85;21.58;;;;;;;5.33;100.00;101848.81;5051523;28;20021;-85
2023/03/20 04:03:19;;;;;;;32.17;21.45;;;;;;;5.37;100.00;101844.34;5068553;28;20024;-85
2023/03/20 04:05:46;;;;;;;30.77;20.83;;;;;;;5.33;100.00;101827.09;5068303;28;20109;-85
2023/03/20 04:08:13;;;;;;;30.77;21.02;;;;;;;5.30;100.00;101840.25;5049707;28;20024;-85
2023/03/20 04:10:39;;;;;;;30.85;21.70;;;;;;;5.29;100.00;101839.41;5069542;28;20070;-85
2023/03/20 04:13:04;;;;;;;29.40;20.25;;;;;;;5.30;100.00;101832.41;5068611;28;20498;-85
2023/03/20 04:15:30;;;;;;;28.58;19.65;;;;;;;5.28;100.00;101831.63;5068728;28;20158;-85
2023/03/20 04:17:55;;;;;;;30.92;20.25;;;;;;;5.27;100.00;101835.16;5068025;28;20081;-85
2023/03/20 04:20:22;;;;;;;33.53;20.45;;;;;;;5.26;100.00;101836.06;5068119;28;20082;-85
2023/03/20 04:22:47;;;;;;;30.80;20.55;;;;;;;5.25;100.00;101829.13;5050176;28;20477;-85
2023/03/20 04:25:20;;;;;;;32.10;19.98;;;;;;;5.26;100.00;101838.66;5062177;28;20029;-85
2023/03/20 04:27:45;;;;;;;29.85;20.92;;;;;;;5.25;100.00;101834.34;5050319;28;20036;-84
2023/03/20 04:30:11;;;;;;;31.45;20.60;;;;;;;5.22;100.00;101842.28;5070505;28;20425;-84
2023/03/20 04:32:36;;;;;;;28.13;20.35;;;;;;;5.22;100.00;101834.47;5071494;28;20040;-84
2023/03/20 04:35:03;;;;;;;30.88;19.77;;;;;;;5.20;100.00;101837.13;5050944;28;20393;-84
2023/03/20 04:37:29;;;;;;;29.08;19.50;;;;;;;5.18;100.00;101831.09;5053040;28;20021;-84
2023/03/20 04:39:54;;;;;;;28.15;19.77;;;;;;;5.15;100.00;101825.13;5064407;28;20244;-84
2023/03/20 04:42:20;;;;;;;32.83;21.23;;;;;;;5.15;100.00;101828.59;5070072;28;20037;-83
2023/03/20 04:44:46;;;;;;;30.08;20.48;;;;;;;5.14;100.00;101826.88;5068557;28;20025;-84
2023/03/20 04:47:11;;;;;;;31.02;20.00;;;;;;;5.14;100.00;101826.03;5070225;28;20117;-84
2023/03/20 04:49:36;;;;;;;32.42;19.95;;;;;;;5.13;100.00;101814.75;5069881;28;20035;-84
2023/03/20 04:52:02;;;;;;;29.08;19.30;;;;;;;5.14;100.00;101815.59;5070139;28;21438;-84
2023/03/20 04:54:27;;;;;;;29.30;19.27;;;;;;;5.13;100.00;101808.69;5072209;28;20028;-84
2023/03/20 04:56:54;;;;;;;30.42;19.27;;;;;;;5.13;100.00;101804.31;5054349;28;20096;-85
2023/03/20 04:59:19;;;;;;;27.38;18.92;;;;;;;5.16;100.00;101808.56;5070824;28;21450;-85
2023/03/20 05:01:45;;;;;;;30.88;19.48;;;;;;;5.14;100.00;101810.38;5054904;28;20032;-84
2023/03/20 05:04:10;;;;;;;32.72;19.00;;;;;;;5.14;100.00;101818.19;5066854;28;20027;-84
2023/03/20 05:06:36;;;;;;;27.50;18.48;;;;;;;5.16;100.00;101819.00;5072610;28;20027;-84
2023/03/20 05:09:03;;;;;;;27.60;18.90;;;;;;;5.16;100.00;101814.63;5068950;28;20043;-84
2023/03/20 05:11:28;;;;;;;27.15;18.30;;;;;;;5.18;100.00;101817.19;5072277;28;20028;-84
2023/03/20 05:13:54;;;;;;;28.15;18.85;;;;;;;5.20;100.00;101815.38;5070850;28;20036;-83
2023/03/20 05:16:19;;;;;;;28.52;19.42;;;;;;;5.19;100.00;101808.44;5068138;28;20024;-84
2023/03/20 05:18:45;;;;;;;29.02;18.77;;;;;;;5.18;100.00;101798.94;5062756;28;20028;-84
2023/03/20 05:21:10;;;;;;;30.75;19.42;;;;;;;5.22;100.00;101797.94;5052813;28;20058;-85
2023/03/20 05:23:36;;;;;;;28.63;18.23;;;;;;;5.20;100.00;101800.59;5069295;28;20056;-85
2023/03/20 05:26:02;;;;;;;26.58;17.67;;;;;;;5.25;100.00;101798.66;5070303;28;20028;-84
2023/03/20 05:28:28;;;;;;;29.23;18.48;;;;;;;5.24;100.00;101801.34;5053012;28;20031;-84
2023/03/20 05:30:54;;;;;;;29.73;17.98;;;;;;;5.28;100.00;101800.31;5051485;28;20041;-85
2023/03/20 05:33:19;;;;;;;24.77;17.60;;;;;;;5.28;100.00;101802.94;5069647;28;20152;-85
2023/03/20 05:35:45;;;;;;;27.17;17.45;;;;;;;5.26;100.00;101799.53;5051187;28;20033;-85
2023/03/20 05:38:10;;;;;;;26.85;17.45;;;;;;;5.29;100.00;101799.41;5059535;28;20543;-85
2023/03/20 05:40:36;;;;;;;25.00;17.10;;;;;;;5.29;100.00;101799.41;5069633;28;20048;-85
2023/03/20 05:43:01;;;;;;;24.67;16.77;;;;;;;5.31;100.00;101797.59;5071280;28;20166;-80
2023/03/20 05:45:27;;;;;;;25.80;16.83;;;;;;;5.29;100.00;101800.25;5068334;28;20074;-80
2023/03/20 05:47:52;;;;;;;28.52;16.25;;;;;;;5.33;100.00;101801.00;5071391;28;20039;-85
2023/03/20 05:50:18;;;;;;;24.38;16.27;;;;;;;5.36;100.00;101806.09;5065288;28;20028;-85
2023/03/20 05:52:47;;;;;;;27.02;16.65;;;;;;;5.38;100.00;101817.31;5048858;28;20029;-85
2023/03/20 05:55:14;;;;;;;23.92;15.93;;;;;;;5.38;100.00;101809.50;5056502;28;20048;-85
2023/03/20 05:57:40;;;;;;;27.45;16.02;;;;;;;5.39;100.00;101812.97;5050664;28;20052;-80
2023/03/20 06:00:07;;;;;;;30.08;16.08;;;;;;;5.37;100.00;101818.25;5069471;28;20465;-85
2023/03/20 06:02:33;;;;;;;24.80;15.45;;;;;;;5.41;100.00;101827.66;5050120;28;20387;-84
2023/03/20 06:04:58;;;;;;;31.67;16.50;;;;;;;5.45;100.00;101831.00;5070447;28;20351;-85
2023/03/20 06:07:23;;;;;;;23.25;14.98;;;;;;;5.45;100.00;101837.06;5069113;28;20032;-84
2023/03/20 06:09:53;;;;;;;27.98;15.52;;;;;;;5.47;100.00;101834.41;5071984;28;20036;-84
2023/03/20 06:12:19;;;;;;;25.92;15.65;;;;;;;5.48;100.00;101839.56;5070293;28;20103;-85
2023/03/20 06:14:45;;;;;;;25.48;15.23;;;;;;;5.50;100.00;101832.53;5071631;28;20025;-86
2023/03/20 06:17:10;;;;;;;24.88;14.07;;;;;;;5.54;100.00;101841.09;5070415;28;20477;-84
2023/03/20 06:19:37;;;;;;;25.95;15.02;;;;;;;5.55;100.00;101840.19;5044368;28;20021;-84
2023/03/20 06:22:02;;;;;;;25.73;14.27;;;;;;;5.58;100.00;101833.09;5051016;28;20089;-85
2023/03/20 06:24:28;;;;;;;25.45;14.65;;;;;;;5.62;100.00;101841.69;5062548;28;20044;-83
2023/03/20 06:26:53;;;;;;;23.67;14.13;;;;;;;5.62;100.00;101839.94;5050138;28;20519;-84
2023/03/20 06:29:20;;;;;;;28.23;14.50;;;;;;;5.68;100.00;101846.66;5069570;28;20020;-84
2023/03/20 06:31:45;;;;;;;23.20;14.50;;;;;;;5.69;100.00;101847.53;5070006;28;20107;-84
2023/03/20 06:34:11;;;;;;;21.70;14.38;;;;;;;5.69;100.00;101845.75;5068700;28;20132;-84
2023/03/20 06:36:36;;;;;;;22.58;14.18;;;;;;;5.70;100.00;101842.25;5051614;28;20080;-84
2023/03/20 06:39:03;;;;;;;24.67;14.45;;;;;;;5.77;100.00;101848.06;5070999;28;20031;-84
2023/03/20 06:41:28;;;;;;;25.63;14.30;;;;;;;5.79;100.00;101852.34;5078725;28;20041;-84
2023/03/20 06:43:55;;;;;;;23.98;13.70;;;;;;;5.81;100.00;101854.88;5077379;28;20028;-84
2023/03/20 06:46:20;;;;;;;23.52;13.90;;;;;;;5.84;100.00;101860.00;5080401;28;20067;-84
2023/03/20 06:48:47;;;;;;;24.42;14.43;;;;;;;5.90;100.00;101867.63;5060862;28;20102;-84
2023/03/20 06:51:13;;;;;;;21.58;14.18;;;;;;;5.93;100.00;101875.34;5079423;28;20059;-85
2023/03/20 06:53:40;;;;;;;26.45;13.50;;;;;;;5.95;100.00;101878.75;5077569;28;20024;-85
2023/03/20 06:56:07;;;;;;;24.40;13.75;;;;;;;5.99;100.00;101885.53;5050097;28;20083;-85
2023/03/20 06:58:33;;;;;;;25.52;12.75;;;;;;;5.99;100.00;101885.53;5067145;28;20844;-85
2023/03/20 07:00:58;;;;;;;22.40;13.27;;;;;;;6.01;100.00;101881.16;5067941;28;20036;-85
2023/03/20 07:03:24;;;;;;;24.85;13.95;;;;;;;6.00;100.00;101882.03;5051789;28;20032;-83
2023/03/20 07:05:49;;;;;;;23.58;13.50;;;;;;;6.05;100.00;101884.50;5069260;28;20361;-83
2023/03/20 07:08:15;;;;;;;22.90;12.85;;;;;;;6.04;100.00;101883.63;5065873;28;20020;-84
2023/03/20 07:10:40;;;;;;;27.95;13.07;;;;;;;6.08;100.00;101890.44;5059780;28;20028;-83
2023/03/20 07:13:06;;;;;;;22.63;12.68;;;;;;;6.10;100.00;101891.22;5063272;28;20029;-83
2023/03/20 07:15:31;;;;;;;26.35;12.48;;;;;;;6.14;100.00;101898.03;5058569;28;20025;-84
2023/03/20 07:17:57;;;;;;;20.25;12.13;;;;;;;6.17;100.00;101905.75;5051924;28;20032;-84
2023/03/20 07:20:22;;;;;;;18.60;12.85;;;;;;;6.20;100.00;101900.41;5064024;28;20089;-84
2023/03/20 07:22:48;;;;;;;26.05;13.10;;;;;;;6.26;100.00;101904.53;5068022;28;20028;-84
2023/03/20 07:25:14;;;;;;;28.73;13.52;;;;;;;6.28;100.00;101900.09;5069543;28;20100;-84
2023/03/20 07:27:39;;;;;;;22.73;13.25;;;;;;;6.32;100.00;101908.69;5070127;28;20020;-84
2023/03/20 07:30:06;;;;;;;23.88;13.40;;;;;;;6.38;100.00;101905.81;5051130;28;20032;-84
2023/03/20 07:32:32;;;;;;;25.60;13.40;;;;;;;6.41;100.00;101906.56;5067378;28;20032;-84
2023/03/20 07:34:57;;;;;;;20.92;11.73;;;;;;;6.47;100.00;101905.47;5065100;28;20040;-84
2023/03/20 07:37:23;;;;;;;21.15;12.23;;;;;;;6.52;100.00;101911.38;5064618;28;20195;-84
2023/03/20 07:39:48;;;;;;;23.40;12.13;;;;;;;6.56;100.00;101907.72;5066092;28;20040;-83
2023/03/20 07:42:15;;;;;;;24.80;12.98;;;;;;;6.63;100.00;101911.78;5068118;28;20032;-84
2023/03/20 07:44:40;;;;;;;22.63;12.65;;;;;;;6.63;100.00;101909.16;5071404;28;20024;-83
2023/03/20 07:47:06;;;;;;;19.50;11.07;;;;;;;6.64;100.00;101910.88;5067946;28;20174;-84
2023/03/20 07:49:33;;;;;;;20.70;11.25;;;;;;;6.63;100.00;101911.78;5068390;28;20479;-83
2023/03/20 07:51:58;;;;;;;23.13;11.85;;;;;;;6.66;100.00;101909.03;5066980;28;20081;-83
2023/03/20 07:54:24;;;;;;;23.05;12.00;;;;;;;6.67;100.00;101904.66;5053059;28;20020;-83
2023/03/20 07:56:49;;;;;;;20.40;11.05;;;;;;;6.67;100.00;101905.50;5069068;28;20045;-83
2023/03/20 07:59:15;;;;;;;25.83;11.35;;;;;;;6.67;100.00;101910.75;5065774;28;20028;-83
2023/03/20 08:01:41;;;;;;;21.83;11.38;;;;;;;6.72;100.00;101906.16;5072392;28;20021;-80
2023/03/20 08:04:10;;;;;;;19.70;11.23;;;;;;;6.75;100.00;101913.88;5068009;28;20130;-84
2023/03/20 08:06:38;;;;;;;22.48;11.95;;;;;;;6.79;100.00;101907.63;5049778;28;20024;-84
2023/03/20 08:09:04;;;;;;;21.65;11.40;;;;;;;6.83;100.00;101905.75;5068667;28;20025;-84
2023/03/20 08:11:30;;;;;;;19.95;11.07;;;;;;;6.85;100.00;101904.78;5067915;28;20017;-84
2023/03/20 08:13:55;;;;;;;21.23;10.70;;;;;;;6.89;100.00;101910.72;5067906;28;20025;-85
2023/03/20 08:16:20;;;;;;;23.92;11.27;;;;;;;6.88;100.00;101909.88;5068480;28;20096;-84
2023/03/20 08:18:46;;;;;;;21.40;10.65;;;;;;;6.92;100.00;101905.38;5049890;28;20028;-85
2023/03/20 08:21:11;;;;;;;22.45;10.80;;;;;;;6.91;100.00;101904.50;5068018;28;20025;-84
2023/03/20 08:23:37;;;;;;;22.05;10.43;;;;;;;6.92;100.00;101907.97;5058347;28;20028;-83
2023/03/20 08:26:02;;;;;;;21.27;10.65;;;;;;;6.93;99.74;101900.97;5087360;28;20073;-83
2023/03/20 08:28:28;;;;;;;20.40;10.27;;;;;;;6.97;100.00;101902.56;5061499;28;20025;-84
2023/03/20 08:30:53;;;;;;;19.10;10.15;;;;;;;7.00;100.00;101905.88;5073251;28;20036;-83
2023/03/20 08:33:19;;;;;;;17.83;9.75;;;;;;;7.07;100.00;101907.31;5069596;28;20507;-82
2023/03/20 08:35:57;;;;;;;20.63;10.23;;;;;;;7.14;100.00;101907.91;5083144;28;20042;-84
2023/03/20 08:38:23;;;;;;;20.73;10.25;;;;;;;7.17;99.55;101910.41;5057530;28;20020;-83
2023/03/20 08:40:49;;;;;;;20.20;9.85;;;;;;;7.25;99.36;101912.72;5065407;28;20149;-83
2023/03/20 08:43:14;;;;;;;17.42;9.63;;;;;;;7.31;98.93;101908.06;5080257;28;20445;-83
2023/03/20 08:45:40;;;;;;;19.40;8.82;;;;;;;7.35;98.43;101907.00;5063854;28;20099;-83
2023/03/20 08:48:05;;;;;;;19.15;8.90;;;;;;;7.38;97.81;101908.63;5052921;28;20095;-83
2023/03/20 08:50:31;;;;;;;18.73;9.25;;;;;;;7.38;97.27;101912.09;5067015;28;20052;-83
2023/03/20 08:52:56;;;;;;;19.10;9.55;;;;;;;7.40;97.63;101912.03;5053087;28;20036;-84
2023/03/20 08:55:22;;;;;;;20.90;9.75;;;;;;;7.41;97.64;101909.34;5077443;28;20040;-83
2023/03/20 08:57:47;;;;;;;16.83;8.98;;;;;;;7.47;98.34;101898.59;5084525;28;20082;-84
2023/03/20 09:00:15;;;;;;;20.17;9.05;;;;;;;7.51;97.79;101900.16;5078443;28;20024;-84
2023/03/20 09:02:41;;;;;;;21.98;10.18;;;;;;;7.53;97.63;101906.19;5081686;28;20115;-83
2023/03/20 09:05:08;;;;;;;21.67;9.43;;;;;;;7.50;97.23;101910.72;5078255;28;20472;-83
2023/03/20 09:07:34;;;;;;;20.45;9.50;;;;;;;7.44;96.60;101910.97;5077145;28;20039;-84
2023/03/20 09:09:59;;;;;;;20.17;9.05;;;;;;;7.39;97.21;101915.56;5088042;28;20024;-83
2023/03/20 09:12:25;;;;;;;23.40;9.82;;;;;;;7.30;96.73;101908.13;5074806;28;20486;-83
2023/03/20 09:14:50;;;;;;;23.10;9.93;;;;;;;7.27;98.68;101910.88;5058744;28;20021;-83
2023/03/20 09:17:16;;;;;;;20.88;10.05;;;;;;;7.22;100.00;101918.94;5073494;28;20028;-84
2023/03/20 09:19:43;;;;;;;19.83;10.02;;;;;;;7.19;100.00;101921.66;5063986;28;20063;-84
2023/03/20 09:22:12;;;;;;;22.65;9.63;;;;;;;7.14;100.00;101921.00;5068984;28;20034;-83
2023/03/20 09:24:38;;;;;;;24.17;10.70;;;;;;;7.10;100.00;101927.28;5077349;28;20024;-83
2023/03/20 09:27:03;;;;;;;22.83;10.52;;;;;;;7.02;100.00;101932.00;5075778;28;20265;-84
2023/03/20 09:29:29;;;;;;;20.30;10.40;;;;;;;6.99;100.00;101934.72;5073311;28;20055;-81
2023/03/20 09:31:54;;;;;;;25.92;10.30;;;;;;;6.99;100.00;101919.88;5058686;28;20028;-81
2023/03/20 09:34:20;;;;;;;23.55;10.57;;;;;;;6.90;100.00;101928.97;5053861;28;20610;-82
2023/03/20 09:36:45;;;;;;;19.70;10.20;;;;;;;6.88;100.00;101920.34;5081829;28;20388;-82
2023/03/20 09:39:11;;;;;;;20.98;10.43;;;;;;;6.93;100.00;101921.91;5072046;28;20027;-82
2023/03/20 09:41:37;;;;;;;19.52;10.73;;;;;;;6.95;100.00;101930.53;5058367;28;20028;-81
2023/03/20 09:44:08;;;;;;;26.73;10.75;;;;;;;6.97;100.00;101923.47;5090811;28;20028;-82
2023/03/20 09:46:59;;;;;;;22.98;10.98;;;;;;;7.11;100.00;101923.75;5078877;28;20039;-82
2023/03/20 09:49:24;;;;;;;19.73;10.77;;;;;;;7.07;100.00;101927.41;5072246;28;20029;-81
2023/03/20 09:52:03;;;;;;;23.35;11.43;;;;;;;7.07;100.00;101915.19;5061759;28;20032;-81
2023/03/20 09:54:43;;;;;;;23.85;11.27;;;;;;;7.10;100.00;101912.44;5091853;28;20024;-81
2023/03/20 09:57:19;;;;;;;25.65;11.15;;;;;;;7.11;100.00;101921.13;5072783;28;20032;-81
2023/03/20 09:59:47;;;;;;;19.48;10.60;;;;;;;7.08;100.00;101916.88;5088949;28;20024;-82
2023/03/20 10:02:35;;;;;;;17.50;10.20;;;;;;;7.10;100.00;101916.81;5075543;28;20118;-83
2023/03/20 10:05:04;;;;;;;23.80;11.43;;;;;;;7.11;100.00;101914.13;5066446;28;20051;-82
2023/03/20 10:07:29;;;;;;;19.70;10.40;;;;;;;7.20;100.00;101913.75;5087793;28;20067;-82
2023/03/20 10:09:55;;;;;;;17.98;9.63;;;;;;;7.21;100.00;101915.47;5089576;28;20059;-81
2023/03/20 10:12:47;;;;;;;19.98;9.85;;;;;;;7.25;100.00;101912.72;5074258;28;20024;-82
2023/03/20 10:15:42;;;;;;;20.38;9.52;;;;;;;7.24;100.00;101911.84;5079219;28;20480;-81
2023/03/20 10:18:28;;;;;;;18.63;9.38;;;;;;;7.17;100.00;101908.63;5063580;28;20028;-82
2023/03/20 10:21:17;;;;;;;18.23;8.40;;;;;;;7.19;100.00;101903.31;5087639;28;20379;-81
2023/03/20 10:24:03;;;;;;;19.63;8.98;;;;;;;7.25;100.00;101897.00;5082433;28;20143;-82
2023/03/20 10:26:33;;;;;;;26.83;9.68;;;;;;;7.30;100.00;101895.88;5088888;28;20028;-82
2023/03/20 10:29:32;;;;;;;20.80;8.55;;;;;;;7.46;100.00;101893.44;5083127;28;20051;-81
2023/03/20 10:32:29;;;;;;;15.05;8.52;;;;;;;7.65;100.00;101893.47;5060721;28;20024;-81
2023/03/20 10:35:16;;;;;;;20.38;9.65;;;;;;;7.80;100.00;101884.91;5052355;28;20039;-82
2023/03/20 10:38:14;;;;;;;20.42;8.63;;;;;;;7.92;100.00;101886.97;5068200;28;20107;-81
2023/03/20 10:40:41;;;;;;;18.55;8.85;;;;;;;7.84;100.00;101881.25;5058297;28;20541;-82
2023/03/20 10:43:20;;;;;;;21.15;8.70;;;;;;;7.88;100.00;101885.41;5081884;28;20020;-81
2023/03/20 10:45:54;;;;;;;21.52;9.18;;;;;;;7.86;100.00;101884.63;5064642;28;20021;-82
2023/03/20 10:48:39;;;;;;;16.98;9.00;;;;;;;7.89;100.00;101889.72;5068206;28;20023;-82
2023/03/20 10:51:13;;;;;;;20.30;8.95;;;;;;;7.93;100.00;101886.03;5074729;28;20036;-82
2023/03/20 10:54:01;;;;;;;19.63;9.18;;;;;;;8.00;100.00;101892.69;5073095;28;20029;-81
2023/03/20 10:56:36;;;;;;;22.05;9.68;;;;;;;8.13;100.00;101890.38;5074028;28;20420;-81
2023/03/20 10:59:22;;;;;;;19.73;9.35;;;;;;;8.21;100.00;101890.84;5088750;28;20028;-82
2023/03/20 11:01:48;;;;;;;20.48;9.50;;;;;;;8.18;100.00;101883.16;5082320;28;20028;-81
2023/03/20 11:04:14;;;;;;;16.70;9.13;;;;;;;8.14;100.00;101884.22;5083655;28;20419;-81
2023/03/20 11:06:58;;;;;;;19.65;9.18;;;;;;;8.27;100.00;101882.69;5071335;28;20011;-82
2023/03/20 11:09:25;;;;;;;22.50;10.32;;;;;;;8.28;100.00;101886.16;5088671;28;20023;-82
2023/03/20 11:11:55;;;;;;;19.33;8.77;;;;;;;8.22;100.00;101878.59;5084619;28;20056;-81
2023/03/20 11:14:23;;;;;;;17.63;9.18;;;;;;;8.28;100.00;101883.53;5079315;28;20161;-82
2023/03/20 11:16:54;;;;;;;19.63;8.43;;;;;;;8.27;100.00;101873.97;5075509;28;20048;-81
2023/03/20 11:19:21;;;;;;;15.98;8.27;;;;;;;8.23;100.00;101873.28;5078449;28;20024;-82
2023/03/20 11:21:50;;;;;;;16.75;7.90;;;;;;;8.27;100.00;101864.34;5089582;28;20426;-82
2023/03/20 11:24:40;;;;;;;18.67;7.78;;;;;;;8.30;100.00;101863.34;5071858;28;20012;-82